Time;durP1;ratioP1;P1;durP2;ratioP2;P2;SDS_P1;SDS_P2;PMS_P1;PMS_P2;Temp;Humidity;BMP_temperature;BMP_pressure;BME280_temperature;BME280_humidity;BME280_pressure;Samples;Min_cycle;Max_cycle;Signal;HPM_P1;HPM_P2
2021/10/08 00:02:00;;;;;;;;;5.25;5.00;;;;;16.19;71.67;102041.06;5054905;28;46087;-82
2021/10/08 00:04:25;;;;;;;;;7.50;7.00;;;;;16.19;71.89;102037.56;5051395;28;46085;-83
2021/10/08 00:06:51;;;;;;;;;8.50;7.00;;;;;16.36;72.12;102061.81;5056531;28;47125;-83
2021/10/08 00:09:16;;;;;;;;;6.50;6.50;;;;;16.15;71.94;102030.78;5058633;27;45781;-84
2021/10/08 00:11:42;;;;;;;;;7.00;6.00;;;;;16.28;71.67;102064.19;5067939;27;45669;-84
2021/10/08 00:14:08;;;;;;;;;7.25;6.25;;;;;16.03;71.38;102010.53;5057705;28;48609;-83
2021/10/08 00:16:33;;;;;;;;;8.00;7.50;;;;;16.34;72.00;102063.75;5053253;28;47091;-85
2021/10/08 00:18:59;;;;;;;;;5.00;5.00;;;;;16.25;71.81;102053.81;5052319;28;45755;-84
2021/10/08 00:21:24;;;;;;;;;6.00;5.25;;;;;16.07;71.66;102023.41;5051437;28;45665;-83
2021/10/08 00:23:50;;;;;;;;;6.50;6.25;;;;;16.20;71.63;102045.38;5054562;28;47357;-84
2021/10/08 00:26:16;;;;;;;;;8.25;7.00;;;;;16.27;71.75;102056.34;5061600;28;45872;-85
2021/10/08 00:28:42;;;;;;;;;6.50;5.25;;;;;15.98;72.11;102008.19;5044578;28;46079;-84
2021/10/08 00:31:08;;;;;;;;;8.50;7.75;;;;;16.18;71.80;102046.44;5055372;28;45895;-85
2021/10/08 00:33:34;;;;;;;;;14.25;13.75;;;;;16.04;72.31;102026.25;5060466;27;46096;-83
2021/10/08 00:35:59;;;;;;;;;18.75;12.75;;;;;16.24;72.17;102068.03;5064647;28;45662;-84
2021/10/08 00:38:25;;;;;;;;;16.75;16.00;;;;;16.26;72.27;102073.19;5054552;28;45855;-84
2021/10/08 00:40:50;;;;;;;;;17.00;15.00;;;;;16.21;72.16;102073.50;5049354;28;45944;-85
2021/10/08 00:43:20;;;;;;;;;17.25;17.00;;;;;15.97;71.88;102046.19;5055927;28;45724;-84
2021/10/08 00:45:47;;;;;;;;;16.25;15.00;;;;;16.02;72.15;102065.22;5042255;28;46092;-83
2021/10/08 00:48:13;;;;;;;;;13.00;12.00;;;;;15.65;72.22;102023.81;5061011;28;45984;-83
2021/10/08 00:50:41;;;;;;;;;13.50;11.75;;;;;15.81;72.30;102058.78;5069634;28;45604;-84
2021/10/08 00:53:07;;;;;;;;;18.75;16.50;;;;;15.82;72.43;102071.88;5059913;28;45916;-84
2021/10/08 00:55:42;;;;;;;;;15.00;14.25;;;;;15.72;72.29;102078.75;5062816;28;48331;-83
2021/10/08 00:58:08;;;;;;;;;16.25;14.25;;;;;15.67;72.20;102077.38;5060424;27;46104;-83
2021/10/08 01:00:33;;;;;;;;;15.75;14.00;;;;;15.53;72.54;102057.19;5042042;28;45915;-83
2021/10/08 01:02:59;;;;;;;;;14.50;13.75;;;;;15.52;72.66;102074.00;5048998;28;46294;-84
2021/10/08 01:05:24;;;;;;;;;15.25;14.25;;;;;15.18;72.37;102038.44;5085450;27;45602;-84
2021/10/08 01:07:50;;;;;;;;;14.50;13.50;;;;;15.43;72.69;102090.44;5084793;28;46222;-82
2021/10/08 01:10:16;;;;;;;;;16.25;15.25;;;;;15.16;72.58;102047.41;5067755;28;45537;-83
2021/10/08 01:12:42;;;;;;;;;13.75;13.75;;;;;15.34;72.95;102085.75;5079810;28;46737;-85
2021/10/08 01:15:08;;;;;;;;;17.25;15.00;;;;;15.31;72.89;102075.41;5069815;27;45834;-84
2021/10/08 01:17:34;;;;;;;;;15.00;13.75;;;;;15.26;72.51;102077.53;5070180;28;45558;-83
2021/10/08 01:20:08;;;;;;;;;15.75;15.00;;;;;15.01;72.64;102043.97;5071958;28;45439;-85
2021/10/08 01:22:34;;;;;;;;;14.00;13.00;;;;;15.07;72.95;102057.63;5065011;28;45695;-83
2021/10/08 01:24:59;;;;;;;;;14.25;14.25;;;;;14.87;73.22;102028.22;5058868;27;46108;-84
2021/10/08 01:27:25;;;;;;;;;15.25;15.00;;;;;15.02;73.08;102058.88;5055507;28;46419;-86
2021/10/08 01:29:53;;;;;;;;;13.75;13.75;;;;;15.10;72.93;102077.72;5054087;28;45671;-84
2021/10/08 01:32:19;;;;;;;;;15.75;13.75;;;;;14.89;73.30;102039.53;5054515;28;45751;-85
2021/10/08 01:34:46;;;;;;;;;17.00;14.00;;;;;15.06;73.29;102070.94;5054224;28;45763;-83
2021/10/08 01:37:12;;;;;;;;;14.50;14.00;;;;;14.88;73.12;102051.88;5050703;28;45943;-85
2021/10/08 01:39:37;;;;;;;;;16.00;12.25;;;;;14.92;73.47;102053.38;5064069;27;46015;-83
2021/10/08 01:42:03;;;;;;;;;12.25;12.25;;;;;14.83;73.49;102048.72;5056910;27;45948;-84
2021/10/08 01:44:28;;;;;;;;;17.50;15.00;;;;;14.74;73.52;102036.09;5054598;28;48263;-84
2021/10/08 01:46:54;;;;;;;;;12.50;12.25;;;;;14.79;73.43;102044.56;5055253;28;45617;-84
2021/10/08 01:49:19;;;;;;;;;14.50;12.00;;;;;14.95;73.62;102084.00;5053308;28;45714;-83
2021/10/08 01:51:44;;;;;;;;;14.25;12.25;;;;;14.81;73.51;102053.22;5051031;28;47331;-83
2021/10/08 01:54:11;;;;;;;;;14.50;13.50;;;;;14.73;73.59;102050.25;5054952;28;45719;-83
2021/10/08 01:56:40;;;;;;;;;16.75;14.25;;;;;14.87;73.79;102081.84;5060974;28;45928;-83
2021/10/08 01:59:06;;;;;;;;;13.25;12.25;;;;;14.78;73.79;102058.72;5058679;28;45697;-84
2021/10/08 02:01:31;;;;;;;;;13.50;13.00;;;;;14.88;73.43;102077.44;5057998;28;45686;-84
2021/10/08 02:03:57;;;;;;;;;15.75;12.75;;;;;14.69;73.69;102044.31;5055874;28;47182;-83
2021/10/08 02:06:23;;;;;;;;;13.00;10.25;;;;;14.54;73.40;102028.66;5047297;28;45728;-83
2021/10/08 02:08:49;;;;;;;;;11.75;11.00;;;;;14.60;73.74;102042.28;5058259;28;45815;-83
2021/10/08 02:11:14;;;;;;;;;15.75;13.75;;;;;14.62;73.49;102039.56;5047610;28;45802;-83
2021/10/08 02:13:40;;;;;;;;;15.50;12.00;;;;;14.59;73.61;102034.47;5055194;28;48170;-83
2021/10/08 02:16:05;;;;;;;;;11.75;10.75;;;;;14.72;74.02;102063.53;5055005;28;46080;-83
2021/10/08 02:18:30;;;;;;;;;19.75;12.00;;;;;14.78;73.85;102066.63;5054106;28;45567;-83
2021/10/08 02:20:56;;;;;;;;;13.00;12.00;;;;;14.54;73.66;102036.56;5066559;28;45831;-83
2021/10/08 02:23:21;;;;;;;;;12.50;10.50;;;;;14.76;74.09;102070.31;5052954;28;45830;-84
2021/10/08 02:25:47;;;;;;;;;14.00;13.25;;;;;14.75;73.89;102073.88;5051252;28;45697;-83
2021/10/08 02:28:13;;;;;;;;;16.75;15.50;;;;;14.58;73.71;102045.97;5054371;28;45637;-84
2021/10/08 02:30:38;;;;;;;;;14.75;10.50;;;;;14.59;73.87;102051.16;5084011;27;48571;-84
2021/10/08 02:33:03;;;;;;;;;16.75;14.00;;;;;14.56;74.17;102048.72;5073842;27;46315;-83
2021/10/08 02:35:29;;;;;;;;;13.00;12.00;;;;;14.62;73.91;102061.50;5059970;27;46307;-84
2021/10/08 02:37:54;;;;;;;;;15.50;13.75;;;;;14.57;74.12;102050.41;5054642;28;45900;-84
2021/10/08 02:40:20;;;;;;;;;16.50;14.00;;;;;14.48;73.87;102043.06;5051577;28;46163;-82
2021/10/08 02:42:45;;;;;;;;;10.25;10.25;;;;;14.64;73.88;102072.78;5052097;28;45999;-84
2021/10/08 02:45:11;;;;;;;;;15.00;12.25;;;;;14.34;74.28;102026.44;5053100;28;45624;-84
2021/10/08 02:47:36;;;;;;;;;14.75;12.25;;;;;14.61;74.00;102078.28;5052407;28;46604;-84
2021/10/08 02:50:02;;;;;;;;;13.00;12.00;;;;;14.57;74.20;102066.25;5052149;28;46305;-83
2021/10/08 02:52:27;;;;;;;;;14.00;13.00;;;;;14.60;74.66;102079.22;5052566;28;47184;-85
2021/10/08 02:54:53;;;;;;;;;13.75;13.00;;;;;14.54;74.29;102066.41;5052238;28;45964;-84
2021/10/08 02:57:19;;;;;;;;;14.00;13.75;;;;;14.26;74.40;102019.00;5052549;28;45920;-85
2021/10/08 02:59:44;;;;;;;;;14.00;12.00;;;;;14.38;74.03;102041.13;5051707;28;46493;-84
2021/10/08 03:02:10;;;;;;;;;15.75;13.00;;;;;14.25;74.36;102023.41;5051762;28;45783;-85
2021/10/08 03:04:35;;;;;;;;;14.50;13.50;;;;;14.52;74.45;102080.66;5051959;28;46121;-84
2021/10/08 03:07:00;;;;;;;;;12.25;11.25;;;;;14.50;74.65;102072.00;5067679;28;46024;-85
2021/10/08 03:09:26;;;;;;;;;14.50;12.75;;;;;14.19;74.40;102017.72;5065654;28;46563;-83
2021/10/08 03:11:51;;;;;;;;;13.25;12.50;;;;;14.47;74.52;102075.66;5064328;28;45792;-83
2021/10/08 03:14:17;;;;;;;;;11.25;10.75;;;;;14.46;74.56;102067.88;5052330;28;45680;-84
2021/10/08 03:16:42;;;;;;;;;13.50;12.50;;;;;14.30;74.63;102052.16;5057581;28;46067;-84
2021/10/08 03:19:07;;;;;;;;;12.50;11.00;;;;;14.29;74.58;102050.44;5052470;28;45715;-83
2021/10/08 03:21:33;;;;;;;;;13.75;12.25;;;;;14.32;74.72;102054.66;5067042;28;47411;-84
2021/10/08 03:23:58;;;;;;;;;15.00;13.00;;;;;14.38;74.67;102068.34;5060941;27;46235;-84
2021/10/08 03:26:24;;;;;;;;;14.50;12.00;;;;;14.29;74.58;102055.72;5064851;28;45609;-85
2021/10/08 03:28:50;;;;;;;;;14.25;12.25;;;;;14.20;74.79;102051.00;5058294;28;46754;-84
2021/10/08 03:31:16;;;;;;;;;12.25;12.25;;;;;14.05;74.99;102028.25;5076975;28;46991;-84
2021/10/08 03:33:41;;;;;;;;;12.50;11.75;;;;;14.11;75.00;102044.53;5070519;28;45643;-84
2021/10/08 03:36:11;;;;;;;;;14.75;12.00;;;;;14.16;74.72;102058.28;5062843;28;45922;-84
2021/10/08 03:38:37;;;;;;;;;16.00;12.50;;;;;14.27;75.13;102078.69;5059152;28;47489;-83
2021/10/08 03:43:27;;;;;;;;;12.75;11.75;;;;;14.24;75.07;102074.47;5052677;28;46074;-83
2021/10/08 03:45:54;;;;;;;;;13.50;11.50;;;;;14.11;74.85;102060.34;5067013;28;45700;-81
2021/10/08 03:48:38;;;;;;;;;14.50;13.75;;;;;14.15;75.11;102072.41;5064010;27;45935;-82
2021/10/08 03:51:04;;;;;;;;;13.75;11.50;;;;;14.08;75.25;102062.34;5055465;28;46242;-84
2021/10/08 03:53:31;;;;;;;;;12.00;12.00;;;;;14.14;75.38;102080.41;5066977;28;46094;-85
2021/10/08 03:55:56;;;;;;;;;16.00;13.00;;;;;13.87;75.16;102040.81;5073338;27;45869;-84
2021/10/08 03:58:22;;;;;;;;;14.00;13.50;;;;;13.90;75.31;102042.41;5070531;28;47696;-84
2021/10/08 04:00:48;;;;;;;;;15.25;13.25;;;;;13.99;75.24;102065.53;5081822;27;45564;-82
2021/10/08 04:03:14;;;;;;;;;15.25;13.00;;;;;14.02;75.31;102076.75;5078519;27;45894;-81
2021/10/08 04:05:39;;;;;;;;;13.75;11.75;;;;;13.94;75.58;102071.09;5056462;28;45768;-82
2021/10/08 04:08:04;;;;;;;;;15.00;13.00;;;;;13.90;75.37;102066.97;5051005;28;45884;-81
2021/10/08 04:10:30;;;;;;;;;15.00;13.75;;;;;13.95;75.51;102083.34;5046152;28;45976;-83
2021/10/08 04:12:56;;;;;;;;;16.00;14.00;;;;;13.69;75.42;102048.06;5067394;28;46078;-83
2021/10/08 04:15:22;;;;;;;;;13.00;13.00;;;;;13.66;75.22;102039.47;5049674;28;45891;-81
2021/10/08 04:17:47;;;;;;;;;15.00;13.00;;;;;13.61;75.24;102033.63;5061048;28;46171;-84
2021/10/08 04:20:13;;;;;;;;;14.00;13.50;;;;;13.89;75.59;102094.25;5057164;28;46610;-85
2021/10/08 04:22:38;;;;;;;;;18.00;14.00;;;;;13.87;75.38;102096.97;5053384;28;46324;-85
2021/10/08 04:25:05;;;;;;;;;14.00;13.00;;;;;13.86;75.59;102091.81;5064569;28;45761;-85
2021/10/08 04:27:30;;;;;;;;;17.75;14.00;;;;;13.69;75.32;102063.84;5071522;28;45871;-81
2021/10/08 04:29:55;;;;;;;;;15.75;14.00;;;;;13.55;75.45;102050.66;5071401;28;46262;-86
2021/10/08 04:32:21;;;;;;;;;17.00;15.50;;;;;13.82;75.80;102092.91;5066417;27;45927;-86
2021/10/08 04:34:46;;;;;;;;;13.00;12.50;;;;;13.64;75.48;102059.81;5061671;27;46684;-88
2021/10/08 04:37:11;;;;;;;;;16.50;13.50;;;;;13.52;75.53;102045.59;5068816;28;46477;-88
2021/10/08 04:39:37;;;;;;;;;13.00;12.25;;;;;13.59;75.77;102053.97;5065716;27;45818;-87
2021/10/08 04:42:02;;;;;;;;;16.25;14.00;;;;;13.71;75.73;102088.28;5063164;28;45939;-84
2021/10/08 04:44:29;;;;;;;;;14.25;13.25;;;;;13.43;75.82;102035.63;5074713;28;45558;-85
2021/10/08 04:46:54;;;;;;;;;18.50;16.00;;;;;13.49;75.85;102044.94;5069493;27;47463;-85
2021/10/08 04:49:20;;;;;;;;;17.00;16.00;;;;;13.72;76.05;102092.63;5063980;28;46374;-85
2021/10/08 04:51:45;;;;;;;;;15.50;14.75;;;;;13.72;76.00;102092.63;5065994;27;45988;-86
2021/10/08 04:54:11;;;;;;;;;17.75;16.50;;;;;13.54;75.79;102067.41;5056543;28;45710;-86
2021/10/08 04:56:36;;;;;;;;;18.25;16.00;;;;;13.55;76.16;102066.47;5055906;28;45606;-85
2021/10/08 04:59:03;;;;;;;;;18.00;15.75;;;;;13.66;75.94;102092.16;5066717;28;46473;-86
2021/10/08 05:01:29;;;;;;;;;20.25;17.75;;;;;13.47;75.74;102067.88;5052853;28;45938;-85
2021/10/08 05:03:56;;;;;;;;;17.75;17.75;;;;;13.13;76.25;102016.38;5051117;28;45838;-84
2021/10/08 05:06:21;;;;;;;;;19.00;17.50;;;;;13.44;76.07;102064.47;5082485;27;48682;-82
2021/10/08 05:08:51;;;;;;;;;21.25;20.75;;;;;13.26;75.76;102041.88;5058985;27;46272;-85
2021/10/08 05:11:20;;;;;;;;;20.25;18.25;;;;;13.39;76.21;102060.41;5050226;28;46011;-83
2021/10/08 05:13:45;;;;;;;;;17.25;15.25;;;;;13.58;76.13;102090.00;5054518;28;45846;-86
2021/10/08 05:16:11;;;;;;;;;17.50;15.25;;;;;13.26;75.89;102038.41;5044395;28;48172;-85
2021/10/08 05:18:36;;;;;;;;;18.50;17.50;;;;;13.03;75.91;102006.38;5057213;28;46283;-85
2021/10/08 05:21:01;;;;;;;;;20.50;17.25;;;;;13.45;76.22;102083.75;5056238;27;46322;-85
2021/10/08 05:23:27;;;;;;;;;19.00;17.50;;;;;13.52;76.05;102097.41;5051135;28;45666;-82
2021/10/08 05:25:52;;;;;;;;;20.00;18.25;;;;;13.28;76.38;102061.06;5064847;28;46034;-84
2021/10/08 05:28:18;;;;;;;;;20.00;19.25;;;;;13.32;76.30;102067.00;5057629;28;47376;-83
2021/10/08 05:30:43;;;;;;;;;23.25;22.25;;;;;13.40;76.50;102091.06;5051419;27;45690;-83
2021/10/08 05:33:08;;;;;;;;;21.00;16.25;;;;;13.17;76.34;102046.84;5051205;28;45992;-84
2021/10/08 05:35:34;;;;;;;;;18.50;16.25;;;;;13.44;76.36;102096.06;5059897;28;46009;-84
2021/10/08 05:37:59;;;;;;;;;24.75;21.25;;;;;13.04;76.23;102039.63;5052458;28;47075;-84
2021/10/08 05:40:25;;;;;;;;;23.00;19.25;;;;;13.28;76.57;102079.47;5059368;28;45796;-85
2021/10/08 05:42:50;;;;;;;;;20.25;17.75;;;;;13.18;76.33;102065.16;5054178;28;45959;-85
2021/10/08 05:45:16;;;;;;;;;21.75;18.25;;;;;13.37;76.49;102100.03;5045365;28;46596;-85
2021/10/08 05:47:41;;;;;;;;;23.50;20.50;;;;;13.23;76.55;102075.41;5047006;28;47304;-86
2021/10/08 05:50:07;;;;;;;;;21.75;20.00;;;;;13.18;76.29;102069.59;5042393;28;45850;-84
2021/10/08 05:52:32;;;;;;;;;25.25;20.00;;;;;13.31;76.51;102100.38;5051193;28;45789;-84
2021/10/08 05:54:58;;;;;;;;;21.25;19.50;;;;;13.18;76.26;102080.97;5046587;28;46425;-82
2021/10/08 05:57:23;;;;;;;;;20.50;20.25;;;;;13.09;76.79;102072.72;5049692;28;46719;-84
2021/10/08 05:59:49;;;;;;;;;23.50;19.75;;;;;13.14;76.39;102086.50;5050578;28;45676;-85
2021/10/08 06:02:14;;;;;;;;;21.25;19.50;;;;;13.20;76.48;102099.31;5069862;28;45676;-83
2021/10/08 06:04:39;;;;;;;;;27.00;22.75;;;;;13.08;76.66;102084.19;5050912;28;46897;-83
2021/10/08 06:07:07;;;;;;;;;28.00;23.50;;;;;13.03;76.62;102073.94;5054789;28;45890;-83
2021/10/08 06:09:34;;;;;;;;;23.50;21.75;;;;;12.90;77.08;102052.72;5052797;28;45745;-84
2021/10/08 06:11:59;;;;;;;;;26.25;22.50;;;;;13.19;76.70;102113.38;5052573;28;45874;-82
2021/10/08 06:14:25;;;;;;;;;26.50;21.50;;;;;12.88;77.08;102067.78;5052106;28;46092;-82
2021/10/08 06:16:50;;;;;;;;;21.75;20.75;;;;;13.10;76.82;102111.25;5057962;27;46829;-85
2021/10/08 06:19:16;;;;;;;;;24.00;22.00;;;;;13.18;76.65;102114.31;5058466;28;45669;-86
2021/10/08 06:21:41;;;;;;;;;24.75;23.75;;;;;12.94;76.87;102075.31;5061908;28;46087;-84
2021/10/08 06:24:06;;;;;;;;;23.75;21.75;;;;;13.06;76.56;102101.84;5053307;28;46344;-84
2021/10/08 06:26:32;;;;;;;;;24.50;22.25;;;;;12.82;77.04;102070.75;5063748;28;46122;-82
2021/10/08 06:28:58;;;;;;;;;23.00;21.00;;;;;13.06;77.24;102107.13;5064623;27;46166;-83
2021/10/08 06:31:23;;;;;;;;;24.75;22.00;;;;;12.95;77.13;102099.84;5069198;28;46248;-85
2021/10/08 06:33:49;;;;;;;;;21.00;20.25;;;;;12.91;76.95;102091.25;5052840;28;46332;-83
2021/10/08 06:36:14;;;;;;;;;25.50;20.50;;;;;13.11;76.90;102137.50;5055455;28;46287;-82
2021/10/08 06:38:40;;;;;;;;;24.50;21.75;;;;;13.09;77.35;102139.34;5050247;28;46005;-81
2021/10/08 06:41:05;;;;;;;;;24.00;22.00;;;;;13.05;77.21;102129.94;5048621;28;45903;-76
2021/10/08 06:43:31;;;;;;;;;29.25;23.25;;;;;12.92;76.74;102107.88;5045038;28;45640;-77
2021/10/08 06:45:56;;;;;;;;;24.25;20.50;;;;;13.00;76.93;102119.69;5066769;27;46923;-77
2021/10/08 06:48:21;;;;;;;;;28.00;22.25;;;;;13.00;77.32;102132.00;5046855;28;47935;-77
2021/10/08 06:50:47;;;;;;;;;22.75;21.25;;;;;12.97;76.97;102119.84;5046616;28;46118;-77
2021/10/08 06:53:12;;;;;;;;;27.50;24.50;;;;;12.97;77.35;102124.25;5048277;28;46418;-78
2021/10/08 06:55:38;;;;;;;;;29.25;24.00;;;;;12.94;77.21;102121.81;5048805;28;45920;-77
2021/10/08 06:58:05;;;;;;;;;21.50;20.25;;;;;13.08;77.34;102135.03;5046794;28;46183;-79
2021/10/08 07:00:30;;;;;;;;;28.75;25.50;;;;;12.94;76.99;102121.81;5050862;28;46068;-77
2021/10/08 07:02:57;;;;;;;;;25.75;22.50;;;;;13.08;77.19;102137.66;5050177;28;46834;-79
2021/10/08 07:05:24;;;;;;;;;22.75;21.75;;;;;13.03;77.26;102129.19;5049274;28;46203;-78
2021/10/08 07:07:51;;;;;;;;;24.00;23.00;;;;;13.11;77.35;102148.03;5050172;28;45810;-77
2021/10/08 07:10:17;;;;;;;;;27.00;21.50;;;;;13.04;77.48;102141.41;5049665;28;45911;-79
2021/10/08 07:12:43;;;;;;;;;28.50;25.50;;;;;13.07;77.06;102143.84;5050274;28;47527;-77
2021/10/08 07:15:19;;;;;;;;;21.00;21.00;;;;;13.08;77.62;102140.28;5049322;28;45669;-77
2021/10/08 07:17:48;;;;;;;;;26.75;23.50;;;;;13.08;77.04;102145.56;5050275;28;46317;-77
2021/10/08 07:20:15;;;;;;;;;27.00;25.50;;;;;13.04;76.97;102144.03;5051206;28;46672;-77
2021/10/08 07:22:41;;;;;;;;;25.00;22.50;;;;;12.76;77.46;102091.28;5048354;28;46736;-78
2021/10/08 07:25:08;;;;;;;;;25.25;23.25;;;;;13.07;76.97;102151.75;5050092;28;45728;-79
2021/10/08 07:27:34;;;;;;;;;29.25;26.50;;;;;13.13;77.06;102161.09;5052216;28;46066;-80
2021/10/08 07:30:00;;;;;;;;;30.00;26.75;;;;;13.00;77.45;102137.25;5050401;28;45710;-76
2021/10/08 07:32:27;;;;;;;;;27.25;26.75;;;;;13.17;77.35;102155.56;5057356;28;45782;-78
2021/10/08 07:34:53;;;;;;;;;28.25;24.00;;;;;13.14;77.09;102153.13;5052522;28;46187;-77
2021/10/08 07:37:18;;;;;;;;;26.25;25.50;;;;;13.18;77.21;102157.28;5050559;28;46033;-78
2021/10/08 07:39:43;;;;;;;;;24.00;22.75;;;;;13.13;77.45;102146.16;5052303;28;45932;-78
2021/10/08 07:42:09;;;;;;;;;25.50;22.50;;;;;13.24;76.94;102167.47;5053970;28;45737;-79
2021/10/08 07:44:35;;;;;;;;;25.50;23.25;;;;;13.22;76.74;102163.22;5052525;28;45983;-79
2021/10/08 07:47:00;;;;;;;;;22.75;21.50;;;;;13.26;77.16;102156.84;5052458;28;45912;-77
2021/10/08 07:49:25;;;;;;;;;26.00;22.75;;;;;13.30;77.17;102161.84;5046941;28;46011;-77
2021/10/08 07:51:51;;;;;;;;;29.25;24.75;;;;;13.24;77.16;102153.44;5051755;28;45708;-80
2021/10/08 07:54:16;;;;;;;;;24.25;22.00;;;;;13.30;77.16;102156.56;5050928;28;46245;-77
2021/10/08 07:56:42;;;;;;;;;25.75;23.50;;;;;13.31;76.75;102163.53;5049831;28;45990;-77
2021/10/08 07:59:07;;;;;;;;;24.25;21.00;;;;;13.28;76.81;102155.00;5049859;28;45646;-77
2021/10/08 08:01:32;;;;;;;;;26.50;25.00;;;;;13.31;77.03;102153.03;5048422;28;45857;-76
2021/10/08 08:03:58;;;;;;;;;20.75;20.25;;;;;13.33;76.71;102159.03;5049778;28;46041;-77
2021/10/08 08:06:23;;;;;;;;;26.25;22.50;;;;;13.29;76.78;102141.72;5046678;28;45825;-78
2021/10/08 08:08:49;;;;;;;;;22.00;20.50;;;;;13.23;76.86;102128.06;5051406;28;45770;-85
2021/10/08 08:11:14;;;;;;;;;28.75;23.25;;;;;13.38;77.09;102150.88;5050867;28;46876;-80
2021/10/08 08:13:40;;;;;;;;;25.50;24.50;;;;;13.41;77.20;102151.53;5048108;28;45820;-78
2021/10/08 08:16:05;;;;;;;;;24.00;23.50;;;;;13.43;76.69;102151.47;5048425;28;46248;-77
2021/10/08 08:18:31;;;;;;;;;23.75;22.75;;;;;13.47;76.71;102160.03;5048156;28;45936;-77
2021/10/08 08:20:56;;;;;;;;;25.00;19.50;;;;;13.43;76.78;102146.19;5049963;28;46457;-79
2021/10/08 08:23:22;;;;;;;;;25.00;20.75;;;;;13.37;76.50;102122.84;5048377;28;46963;-75
2021/10/08 08:29:08;;;;;;;;;22.75;22.00;;;;;13.57;76.62;102158.53;5053883;28;45600;-79
2021/10/08 08:31:34;;;;;;;;;25.25;22.25;;;;;13.56;76.43;102160.31;5054086;28;45700;-76
2021/10/08 08:33:59;;;;;;;;;24.00;22.25;;;;;13.60;76.74;102159.22;5054111;28;45626;-77
2021/10/08 08:36:25;;;;;;;;;23.25;22.25;;;;;13.62;76.65;102149.44;5054144;28;45553;-76
2021/10/08 08:38:51;;;;;;;;;27.00;23.50;;;;;13.64;76.18;102144.09;5054137;28;45674;-78
2021/10/08 08:44:38;;;;;;;;;22.25;20.50;;;;;13.69;76.29;102152.56;5053386;28;45562;-77
2021/10/08 08:47:04;;;;;;;;;24.00;22.00;;;;;13.77;75.98;102158.19;5054477;28;45557;-77
2021/10/08 08:49:29;;;;;;;;;24.00;22.00;;;;;13.81;76.30;102157.09;5054343;28;45808;-78
2021/10/08 08:51:55;;;;;;;;;23.25;19.50;;;;;13.86;76.22;102162.94;5053957;28;45700;-77
2021/10/08 08:54:21;;;;;;;;;24.00;21.75;;;;;13.88;75.97;102164.53;5053714;28;45939;-77
2021/10/08 08:56:48;;;;;;;;;27.25;23.50;;;;;13.93;76.09;102161.63;5053468;28;45540;-76
2021/10/08 08:59:13;;;;;;;;;18.00;17.75;;;;;13.93;76.07;102150.25;5053997;28;45808;-77
2021/10/08 09:02:01;;;;;;;;;22.75;21.00;;;;;13.94;75.54;102138.75;5053631;28;45677;-79
2021/10/08 09:04:29;;;;;;;;;25.75;22.25;;;;;13.99;75.58;102142.81;5053424;28;45584;-79
2021/10/08 09:06:55;;;;;;;;;19.00;18.25;;;;;14.11;75.53;102143.84;5053567;28;45535;-79
2021/10/08 09:09:23;;;;;;;;;22.25;19.00;;;;;14.14;75.52;102151.59;5053665;28;45630;-75
2021/10/08 09:15:11;;;;;;;;;23.00;20.50;;;;;14.24;75.22;102150.06;5053729;28;46280;-78
2021/10/08 09:17:37;;;;;;;;;18.75;17.50;;;;;14.18;75.13;102134.63;5053906;28;45675;-78
2021/10/08 09:20:07;;;;;;;;;18.50;18.00;;;;;14.25;75.17;102139.41;5053561;28;45812;-77
2021/10/08 09:22:39;;;;;;;;;21.75;19.25;;;;;14.35;75.21;102144.13;5052426;28;47373;-78
2021/10/08 09:25:22;;;;;;;;;16.00;15.50;;;;;14.35;75.30;102141.50;5059143;28;45611;-82
2021/10/08 09:27:50;;;;;;;;;17.25;16.25;;;;;14.39;74.96;102133.34;5060860;28;45569;-85
2021/10/08 09:30:16;;;;;;;;;20.00;18.00;;;;;14.27;74.69;102111.19;5060825;28;45530;-77
2021/10/08 09:32:46;;;;;;;;;17.50;17.25;;;;;14.49;74.94;102141.50;5060403;28;45991;-78
2021/10/08 09:35:16;;;;;;;;;20.75;18.50;;;;;14.54;74.72;102137.63;5060020;28;46229;-78
2021/10/08 09:37:42;;;;;;;;;19.25;17.00;;;;;14.58;74.80;102135.63;5060952;28;45498;-78
2021/10/08 09:40:31;;;;;;;;;18.00;16.75;;;;;14.62;74.18;102130.09;5060013;28;45509;-78
2021/10/08 09:43:02;;;;;;;;;19.00;17.50;;;;;14.66;74.55;102130.75;5059122;28;45687;-78
2021/10/08 09:45:38;;;;;;;;;18.50;15.75;;;;;14.72;74.25;102125.06;5057466;28;46029;-77
2021/10/08 09:48:04;;;;;;;;;16.75;14.50;;;;;14.74;74.23;102117.88;5056993;28;45903;-79
2021/10/08 09:50:30;;;;;;;;;16.00;15.75;;;;;14.82;74.35;102126.16;5057193;28;45698;-78
2021/10/08 09:53:28;;;;;;;;;17.25;16.00;;;;;14.83;74.23;102109.41;5057608;28;45687;-79
2021/10/08 09:55:55;;;;;;;;;15.75;15.00;;;;;14.94;73.88;102124.53;5035592;28;46115;-82
2021/10/08 09:58:21;;;;;;;;;19.50;16.25;;;;;14.87;74.12;102096.84;5034621;28;45822;-80
2021/10/08 10:01:01;;;;;;;;;18.00;17.50;;;;;15.03;73.79;102116.84;5034625;28;45939;-81
2021/10/08 10:03:30;;;;;;;;;14.25;13.25;;;;;14.95;73.40;102089.28;5035261;28;46422;-80
2021/10/08 10:06:06;;;;;;;;;11.50;10.00;;;;;15.15;73.43;102109.94;5034570;28;46270;-81
2021/10/08 10:08:31;;;;;;;;;12.75;11.50;;;;;15.20;73.31;102099.91;5017090;28;46196;-79
2021/10/08 10:10:59;;;;;;;;;15.00;12.50;;;;;15.27;73.57;102103.00;5033768;28;45603;-77
2021/10/08 10:13:24;;;;;;;;;15.00;14.50;;;;;15.27;73.16;102092.44;5034158;28;46600;-80
2021/10/08 10:15:50;;;;;;;;;11.75;11.00;;;;;15.31;73.11;102089.47;5034084;28;46108;-78
2021/10/08 10:18:19;;;;;;;;;15.00;14.00;;;;;15.42;72.80;102094.88;5033919;28;45743;-82
2021/10/08 10:20:50;;;;;;;;;11.00;10.00;;;;;15.32;72.97;102063.91;5034703;28;45626;-78
2021/10/08 10:23:18;;;;;;;;;10.75;10.25;;;;;15.53;72.48;102087.09;5034096;28;46552;-78
2021/10/08 10:25:46;;;;;;;;;7.50;7.25;;;;;15.47;72.61;102068.16;5034369;28;46066;-79
2021/10/08 10:28:12;;;;;;;;;7.00;7.00;;;;;15.66;72.13;102094.16;5034595;28;45703;-83
2021/10/08 10:30:40;;;;;;;;;10.00;9.00;;;;;15.72;71.96;102085.81;5037648;28;45808;-82
2021/10/08 10:33:07;;;;;;;;;7.50;7.00;;;;;15.65;71.74;102071.38;5056301;28;46920;-79
2021/10/08 10:35:54;;;;;;;;;10.75;9.00;;;;;15.84;71.79;102088.47;5056637;28;45646;-80
2021/10/08 10:38:33;;;;;;;;;7.75;7.00;;;;;15.91;70.38;102096.84;5055975;28;45818;-80
2021/10/08 10:41:21;;;;;;;;;5.50;5.50;;;;;15.88;71.01;102074.09;5057012;28;45722;-79
2021/10/08 10:43:50;;;;;;;;;6.75;6.00;;;;;16.00;70.75;102090.91;5059116;28;45751;-82
2021/10/08 10:46:33;;;;;;;;;9.25;7.00;;;;;16.06;70.62;102092.25;5059495;28;46177;-80
2021/10/08 10:49:23;;;;;;;;;6.75;6.00;;;;;16.12;69.51;102090.03;5059884;28;45827;-79
2021/10/08 10:52:03;;;;;;;;;8.00;7.75;;;;;16.20;70.04;102089.47;5056722;28;45604;-78
2021/10/08 10:54:38;;;;;;;;;6.00;6.00;;;;;16.26;70.00;102087.25;5056984;28;45607;-79
2021/10/08 10:57:06;;;;;;;;;7.50;7.25;;;;;16.29;69.49;102079.13;5057497;28;45903;-78
2021/10/08 10:59:35;;;;;;;;;7.25;7.25;;;;;16.34;69.37;102086.72;5056221;28;45893;-79
2021/10/08 11:04:34;;;;;;;;;5.75;5.75;;;;;16.46;70.05;102077.91;5057021;28;46160;-78
2021/10/08 11:07:22;;;;;;;;;8.00;7.00;;;;;16.49;70.16;102069.72;5058235;28;45933;-79
2021/10/08 11:10:03;;;;;;;;;5.25;5.25;;;;;16.58;69.64;102077.00;5059516;28;45554;-77
2021/10/08 11:12:41;;;;;;;;;5.75;5.75;;;;;16.65;69.73;102077.44;5061655;28;45542;-77
2021/10/08 11:15:19;;;;;;;;;7.00;5.25;;;;;16.70;69.50;102076.13;5063348;28;46691;-77
2021/10/08 11:17:48;;;;;;;;;7.50;7.25;;;;;16.73;69.09;102077.72;5067719;28;45918;-77
2021/10/08 11:20:29;;;;;;;;;6.00;5.75;;;;;16.78;68.85;102063.19;5066414;28;45390;-77
2021/10/08 11:22:59;;;;;;;;;7.75;6.75;;;;;16.77;69.20;102058.00;5067014;28;45681;-77
2021/10/08 11:25:25;;;;;;;;;5.75;5.75;;;;;16.86;68.72;102061.75;5068904;28;45768;-79
2021/10/08 11:27:52;;;;;;;;;5.25;5.00;;;;;16.90;68.46;102065.88;5064125;28;45943;-78